sensor_id;sensor_type;location;lat;lon;timestamp;temperature;humidity
584;HTU21D;27024;54.068;12.116;2022-11-14T00:01:08;9.00;107.45
584;HTU21D;27024;54.068;12.116;2022-11-14T00:03:36;9.07;107.16
584;HTU21D;27024;54.068;12.116;2022-11-14T00:06:06;9.04;107.22
584;HTU21D;27024;54.068;12.116;2022-11-14T00:08:34;9.07;107.42
584;HTU21D;27024;54.068;12.116;2022-11-14T00:11:00;8.98;107.35
584;HTU21D;27024;54.068;12.116;2022-11-14T00:13:27;9.02;107.10
584;HTU21D;27024;54.068;12.116;2022-11-14T00:15:54;8.93;107.25
584;HTU21D;27024;54.068;12.116;2022-11-14T00:18:21;8.93;107.14
584;HTU21D;27024;54.068;12.116;2022-11-14T00:20:49;8.86;107.33
584;HTU21D;27024;54.068;12.116;2022-11-14T00:23:17;8.91;107.12
584;HTU21D;27024;54.068;12.116;2022-11-14T00:25:44;8.97;107.32
584;HTU21D;27024;54.068;12.116;2022-11-14T00:28:12;8.98;107.01
584;HTU21D;27024;54.068;12.116;2022-11-14T00:30:38;8.88;107.62
584;HTU21D;27024;54.068;12.116;2022-11-14T00:33:05;8.89;107.59
584;HTU21D;27024;54.068;12.116;2022-11-14T00:35:32;8.98;107.16
584;HTU21D;27024;54.068;12.116;2022-11-14T00:37:59;8.90;107.38
584;HTU21D;27024;54.068;12.116;2022-11-14T00:40:26;8.95;107.54
584;HTU21D;27024;54.068;12.116;2022-11-14T00:42:53;8.85;107.54
584;HTU21D;27024;54.068;12.116;2022-11-14T00:45:20;8.82;108.02
584;HTU21D;27024;54.068;12.116;2022-11-14T00:47:47;8.85;107.95
584;HTU21D;27024;54.068;12.116;2022-11-14T00:50:15;8.89;107.45
584;HTU21D;27024;54.068;12.116;2022-11-14T00:52:42;8.80;108.05
584;HTU21D;27024;54.068;12.116;2022-11-14T00:55:09;8.91;107.52
584;HTU21D;27024;54.068;12.116;2022-11-14T00:57:35;8.91;107.63
584;HTU21D;27024;54.068;12.116;2022-11-14T01:00:03;8.89;107.59
584;HTU21D;27024;54.068;12.116;2022-11-14T01:02:31;8.88;107.90
584;HTU21D;27024;54.068;12.116;2022-11-14T01:04:57;8.81;108.42
584;HTU21D;27024;54.068;12.116;2022-11-14T01:07:24;8.85;108.27
584;HTU21D;27024;54.068;12.116;2022-11-14T01:09:51;8.83;108.30
584;HTU21D;27024;54.068;12.116;2022-11-14T01:12:17;8.86;107.84
584;HTU21D;27024;54.068;12.116;2022-11-14T01:14:44;8.74;107.75
584;HTU21D;27024;54.068;12.116;2022-11-14T01:17:11;8.78;107.58
584;HTU21D;27024;54.068;12.116;2022-11-14T01:19:38;8.82;107.37
584;HTU21D;27024;54.068;12.116;2022-11-14T01:22:04;8.75;107.70
584;HTU21D;27024;54.068;12.116;2022-11-14T01:24:32;8.66;108.32
584;HTU21D;27024;54.068;12.116;2022-11-14T01:27:00;8.68;108.07
584;HTU21D;27024;54.068;12.116;2022-11-14T01:29:28;8.68;107.53
584;HTU21D;27024;54.068;12.116;2022-11-14T01:31:55;8.64;108.22
584;HTU21D;27024;54.068;12.116;2022-11-14T01:34:22;8.66;108.05
584;HTU21D;27024;54.068;12.116;2022-11-14T01:36:49;8.61;108.25
584;HTU21D;27024;54.068;12.116;2022-11-14T01:39:16;8.60;108.22
584;HTU21D;27024;54.068;12.116;2022-11-14T01:41:43;8.61;108.20
584;HTU21D;27024;54.068;12.116;2022-11-14T01:44:15;8.60;108.42
584;HTU21D;27024;54.068;12.116;2022-11-14T01:46:46;8.68;108.22
584;HTU21D;27024;54.068;12.116;2022-11-14T01:49:20;8.67;107.97
584;HTU21D;27024;54.068;12.116;2022-11-14T01:52:09;8.57;108.64
584;HTU21D;27024;54.068;12.116;2022-11-14T01:54:40;8.62;108.41
584;HTU21D;27024;54.068;12.116;2022-11-14T01:57:10;8.47;108.74
584;HTU21D;27024;54.068;12.116;2022-11-14T01:59:40;8.52;108.57
584;HTU21D;27024;54.068;12.116;2022-11-14T02:02:13;8.49;108.59
584;HTU21D;27024;54.068;12.116;2022-11-14T02:04:44;8.45;109.08
584;HTU21D;27024;54.068;12.116;2022-11-14T02:07:12;8.37;109.10
584;HTU21D;27024;54.068;12.116;2022-11-14T02:09:43;8.38;108.94
584;HTU21D;27024;54.068;12.116;2022-11-14T02:12:13;8.44;108.97
584;HTU21D;27024;54.068;12.116;2022-11-14T02:14:42;8.51;108.58
584;HTU21D;27024;54.068;12.116;2022-11-14T02:17:11;8.43;108.88
584;HTU21D;27024;54.068;12.116;2022-11-14T02:22:36;8.39;109.27
584;HTU21D;27024;54.068;12.116;2022-11-14T02:25:04;8.31;109.47
584;HTU21D;27024;54.068;12.116;2022-11-14T02:27:32;8.24;109.62
584;HTU21D;27024;54.068;12.116;2022-11-14T02:30:12;8.30;109.49
584;HTU21D;27024;54.068;12.116;2022-11-14T02:32:39;8.27;109.75
584;HTU21D;27024;54.068;12.116;2022-11-14T02:35:26;8.34;109.60
584;HTU21D;27024;54.068;12.116;2022-11-14T02:37:53;8.31;109.65
584;HTU21D;27024;54.068;12.116;2022-11-14T02:40:19;8.34;109.78
584;HTU21D;27024;54.068;12.116;2022-11-14T02:42:46;8.35;109.78
584;HTU21D;27024;54.068;12.116;2022-11-14T02:45:13;8.33;110.10
584;HTU21D;27024;54.068;12.116;2022-11-14T02:47:40;8.30;110.29
584;HTU21D;27024;54.068;12.116;2022-11-14T02:50:07;8.30;110.41
584;HTU21D;27024;54.068;12.116;2022-11-14T02:52:33;8.21;110.59
584;HTU21D;27024;54.068;12.116;2022-11-14T02:55:00;8.33;110.37
584;HTU21D;27024;54.068;12.116;2022-11-14T02:57:27;8.22;110.42
584;HTU21D;27024;54.068;12.116;2022-11-14T02:59:54;8.12;111.22
584;HTU21D;27024;54.068;12.116;2022-11-14T03:02:20;8.09;111.32
584;HTU21D;27024;54.068;12.116;2022-11-14T03:04:47;8.08;111.38
584;HTU21D;27024;54.068;12.116;2022-11-14T03:07:14;8.12;111.21
584;HTU21D;27024;54.068;12.116;2022-11-14T03:09:41;8.00;111.44
584;HTU21D;27024;54.068;12.116;2022-11-14T03:12:08;8.04;111.58
584;HTU21D;27024;54.068;12.116;2022-11-14T03:14:38;7.97;111.70
584;HTU21D;27024;54.068;12.116;2022-11-14T03:17:04;8.04;111.63
584;HTU21D;27024;54.068;12.116;2022-11-14T03:19:31;8.02;111.67
584;HTU21D;27024;54.068;12.116;2022-11-14T03:21:58;8.07;111.77
584;HTU21D;27024;54.068;12.116;2022-11-14T03:24:24;7.92;112.24
584;HTU21D;27024;54.068;12.116;2022-11-14T03:26:51;7.96;112.10
584;HTU21D;27024;54.068;12.116;2022-11-14T03:29:18;7.94;112.25
584;HTU21D;27024;54.068;12.116;2022-11-14T03:31:45;7.99;112.10
584;HTU21D;27024;54.068;12.116;2022-11-14T03:34:11;7.96;112.48
584;HTU21D;27024;54.068;12.116;2022-11-14T03:36:38;7.96;112.29
584;HTU21D;27024;54.068;12.116;2022-11-14T03:39:05;7.94;112.33
584;HTU21D;27024;54.068;12.116;2022-11-14T03:41:32;7.79;112.37
584;HTU21D;27024;54.068;12.116;2022-11-14T03:43:59;7.75;112.55
584;HTU21D;27024;54.068;12.116;2022-11-14T03:46:26;7.72;112.76
584;HTU21D;27024;54.068;12.116;2022-11-14T03:48:53;7.69;112.74
584;HTU21D;27024;54.068;12.116;2022-11-14T03:51:20;7.64;112.72
584;HTU21D;27024;54.068;12.116;2022-11-14T03:53:47;7.72;112.20
584;HTU21D;27024;54.068;12.116;2022-11-14T03:56:13;7.53;112.69
584;HTU21D;27024;54.068;12.116;2022-11-14T03:58:40;7.56;112.41
584;HTU21D;27024;54.068;12.116;2022-11-14T04:01:07;7.52;112.42
584;HTU21D;27024;54.068;12.116;2022-11-14T04:03:34;7.56;112.19
584;HTU21D;27024;54.068;12.116;2022-11-14T04:06:01;7.31;112.50
584;HTU21D;27024;54.068;12.116;2022-11-14T04:08:28;7.28;112.64
584;HTU21D;27024;54.068;12.116;2022-11-14T04:10:55;7.39;112.22
584;HTU21D;27024;54.068;12.116;2022-11-14T04:13:22;7.40;111.90
584;HTU21D;27024;54.068;12.116;2022-11-14T04:15:56;7.38;111.92
584;HTU21D;27024;54.068;12.116;2022-11-14T04:18:25;7.22;112.26
584;HTU21D;27024;54.068;12.116;2022-11-14T04:20:52;7.15;112.13
584;HTU21D;27024;54.068;12.116;2022-11-14T04:23:19;7.12;112.47
584;HTU21D;27024;54.068;12.116;2022-11-14T04:25:45;7.17;112.14
584;HTU21D;27024;54.068;12.116;2022-11-14T04:28:13;7.22;112.21
584;HTU21D;27024;54.068;12.116;2022-11-14T04:30:39;7.29;111.86
584;HTU21D;27024;54.068;12.116;2022-11-14T04:33:06;7.17;112.48
584;HTU21D;27024;54.068;12.116;2022-11-14T04:35:33;7.18;112.05
584;HTU21D;27024;54.068;12.116;2022-11-14T04:38:00;7.19;112.29
584;HTU21D;27024;54.068;12.116;2022-11-14T04:40:27;7.17;112.68
584;HTU21D;27024;54.068;12.116;2022-11-14T04:42:53;7.11;112.60
584;HTU21D;27024;54.068;12.116;2022-11-14T04:45:20;7.14;112.56
584;HTU21D;27024;54.068;12.116;2022-11-14T04:47:47;7.05;112.74
584;HTU21D;27024;54.068;12.116;2022-11-14T04:50:14;7.08;113.12
584;HTU21D;27024;54.068;12.116;2022-11-14T04:52:40;7.09;112.95
584;HTU21D;27024;54.068;12.116;2022-11-14T04:55:07;7.26;112.39
584;HTU21D;27024;54.068;12.116;2022-11-14T04:57:34;7.11;112.80
584;HTU21D;27024;54.068;12.116;2022-11-14T05:00:02;7.09;112.85
584;HTU21D;27024;54.068;12.116;2022-11-14T05:02:30;7.14;112.98
584;HTU21D;27024;54.068;12.116;2022-11-14T05:04:57;6.93;113.29
584;HTU21D;27024;54.068;12.116;2022-11-14T05:07:24;6.99;113.20
584;HTU21D;27024;54.068;12.116;2022-11-14T05:09:51;6.93;113.29
584;HTU21D;27024;54.068;12.116;2022-11-14T05:12:18;7.01;113.29
584;HTU21D;27024;54.068;12.116;2022-11-14T05:14:44;7.00;113.13
584;HTU21D;27024;54.068;12.116;2022-11-14T05:17:11;7.02;113.16
584;HTU21D;27024;54.068;12.116;2022-11-14T05:19:38;7.03;112.84
584;HTU21D;27024;54.068;12.116;2022-11-14T05:22:04;7.03;113.00
584;HTU21D;27024;54.068;12.116;2022-11-14T05:24:31;7.03;113.03
584;HTU21D;27024;54.068;12.116;2022-11-14T05:26:58;6.93;113.39
584;HTU21D;27024;54.068;12.116;2022-11-14T05:29:25;6.90;113.54
584;HTU21D;27024;54.068;12.116;2022-11-14T05:31:51;7.00;113.37
584;HTU21D;27024;54.068;12.116;2022-11-14T05:34:18;7.03;113.21
584;HTU21D;27024;54.068;12.116;2022-11-14T05:36:44;7.00;113.44
584;HTU21D;27024;54.068;12.116;2022-11-14T05:39:11;7.01;113.26
584;HTU21D;27024;54.068;12.116;2022-11-14T05:41:38;7.01;113.32
584;HTU21D;27024;54.068;12.116;2022-11-14T05:44:05;6.94;113.31
584;HTU21D;27024;54.068;12.116;2022-11-14T05:46:31;7.00;113.32
584;HTU21D;27024;54.068;12.116;2022-11-14T05:48:59;7.09;112.81
584;HTU21D;27024;54.068;12.116;2022-11-14T05:51:25;6.94;113.28
584;HTU21D;27024;54.068;12.116;2022-11-14T05:53:52;7.02;112.97
584;HTU21D;27024;54.068;12.116;2022-11-14T05:56:20;6.93;113.24
584;HTU21D;27024;54.068;12.116;2022-11-14T05:58:47;6.88;113.37
584;HTU21D;27024;54.068;12.116;2022-11-14T06:01:16;6.82;113.36
584;HTU21D;27024;54.068;12.116;2022-11-14T06:03:45;6.79;113.66
584;HTU21D;27024;54.068;12.116;2022-11-14T06:06:18;6.88;113.07
584;HTU21D;27024;54.068;12.116;2022-11-14T06:08:46;6.82;113.16
584;HTU21D;27024;54.068;12.116;2022-11-14T06:11:15;6.81;112.97
584;HTU21D;27024;54.068;12.116;2022-11-14T06:13:42;6.83;112.67
584;HTU21D;27024;54.068;12.116;2022-11-14T06:16:11;6.78;113.06
584;HTU21D;27024;54.068;12.116;2022-11-14T06:18:39;6.76;112.89
584;HTU21D;27024;54.068;12.116;2022-11-14T06:21:10;6.79;113.09
584;HTU21D;27024;54.068;12.116;2022-11-14T06:23:37;6.80;112.61
584;HTU21D;27024;54.068;12.116;2022-11-14T06:26:06;6.78;113.13
584;HTU21D;27024;54.068;12.116;2022-11-14T06:28:33;6.71;112.95
584;HTU21D;27024;54.068;12.116;2022-11-14T06:31:02;6.76;112.90
584;HTU21D;27024;54.068;12.116;2022-11-14T06:33:33;6.70;112.77
584;HTU21D;27024;54.068;12.116;2022-11-14T06:36:03;6.81;112.74
584;HTU21D;27024;54.068;12.116;2022-11-14T06:38:31;6.85;112.53
584;HTU21D;27024;54.068;12.116;2022-11-14T06:43:35;6.85;112.44
584;HTU21D;27024;54.068;12.116;2022-11-14T06:46:02;6.85;112.42
584;HTU21D;27024;54.068;12.116;2022-11-14T06:48:30;6.79;112.42
584;HTU21D;27024;54.068;12.116;2022-11-14T06:50:58;6.78;112.60
584;HTU21D;27024;54.068;12.116;2022-11-14T06:53:27;6.81;112.33
584;HTU21D;27024;54.068;12.116;2022-11-14T06:56:03;6.80;112.53
584;HTU21D;27024;54.068;12.116;2022-11-14T06:58:32;6.84;112.49
584;HTU21D;27024;54.068;12.116;2022-11-14T07:01:09;6.72;112.64
584;HTU21D;27024;54.068;12.116;2022-11-14T07:03:36;6.80;112.45
584;HTU21D;27024;54.068;12.116;2022-11-14T07:06:04;6.85;112.30
584;HTU21D;27024;54.068;12.116;2022-11-14T07:08:32;6.78;112.52
584;HTU21D;27024;54.068;12.116;2022-11-14T07:11:04;6.73;112.79
584;HTU21D;27024;54.068;12.116;2022-11-14T07:13:32;6.80;112.75
584;HTU21D;27024;54.068;12.116;2022-11-14T07:15:59;6.82;112.55
584;HTU21D;27024;54.068;12.116;2022-11-14T07:18:29;6.73;112.65
584;HTU21D;27024;54.068;12.116;2022-11-14T07:20:58;6.73;112.55
584;HTU21D;27024;54.068;12.116;2022-11-14T07:23:25;6.72;112.55
584;HTU21D;27024;54.068;12.116;2022-11-14T07:25:52;6.85;112.00
584;HTU21D;27024;54.068;12.116;2022-11-14T07:28:19;6.84;112.19
584;HTU21D;27024;54.068;12.116;2022-11-14T07:30:46;6.78;112.36
584;HTU21D;27024;54.068;12.116;2022-11-14T07:33:13;6.79;112.36
584;HTU21D;27024;54.068;12.116;2022-11-14T07:35:40;6.84;112.36
584;HTU21D;27024;54.068;12.116;2022-11-14T07:38:07;6.79;112.49
584;HTU21D;27024;54.068;12.116;2022-11-14T07:40:34;6.89;112.18
584;HTU21D;27024;54.068;12.116;2022-11-14T07:43:01;7.03;111.61
584;HTU21D;27024;54.068;12.116;2022-11-14T07:45:28;6.99;111.50
584;HTU21D;27024;54.068;12.116;2022-11-14T07:47:57;7.02;111.64
584;HTU21D;27024;54.068;12.116;2022-11-14T07:50:25;7.07;111.45
584;HTU21D;27024;54.068;12.116;2022-11-14T07:52:54;7.01;111.37
584;HTU21D;27024;54.068;12.116;2022-11-14T07:55:21;7.11;111.26
584;HTU21D;27024;54.068;12.116;2022-11-14T07:57:51;7.09;111.36
584;HTU21D;27024;54.068;12.116;2022-11-14T08:00:18;7.10;111.27
584;HTU21D;27024;54.068;12.116;2022-11-14T08:02:46;7.05;110.95
584;HTU21D;27024;54.068;12.116;2022-11-14T08:05:13;7.08;111.36
584;HTU21D;27024;54.068;12.116;2022-11-14T08:07:39;7.19;110.94
584;HTU21D;27024;54.068;12.116;2022-11-14T08:10:07;7.22;110.42
584;HTU21D;27024;54.068;12.116;2022-11-14T08:12:34;7.24;110.93
584;HTU21D;27024;54.068;12.116;2022-11-14T08:15:01;7.40;110.06
584;HTU21D;27024;54.068;12.116;2022-11-14T08:17:27;7.39;109.98
584;HTU21D;27024;54.068;12.116;2022-11-14T08:19:54;7.42;109.91
584;HTU21D;27024;54.068;12.116;2022-11-14T08:22:21;7.49;109.39
584;HTU21D;27024;54.068;12.116;2022-11-14T08:24:47;7.61;109.38
584;HTU21D;27024;54.068;12.116;2022-11-14T08:27:14;7.54;109.01
584;HTU21D;27024;54.068;12.116;2022-11-14T08:29:41;7.62;109.00
584;HTU21D;27024;54.068;12.116;2022-11-14T08:32:09;7.61;108.92
584;HTU21D;27024;54.068;12.116;2022-11-14T08:34:36;7.68;108.53
584;HTU21D;27024;54.068;12.116;2022-11-14T08:37:02;7.89;107.91
584;HTU21D;27024;54.068;12.116;2022-11-14T08:39:29;7.89;107.78
584;HTU21D;27024;54.068;12.116;2022-11-14T08:41:56;8.04;107.06
584;HTU21D;27024;54.068;12.116;2022-11-14T08:44:23;8.08;106.56
584;HTU21D;27024;54.068;12.116;2022-11-14T08:46:49;8.06;106.96
584;HTU21D;27024;54.068;12.116;2022-11-14T08:49:16;8.09;107.04
584;HTU21D;27024;54.068;12.116;2022-11-14T08:51:43;8.16;105.93
584;HTU21D;27024;54.068;12.116;2022-11-14T08:54:10;8.11;106.52
584;HTU21D;27024;54.068;12.116;2022-11-14T08:56:37;8.12;106.88
584;HTU21D;27024;54.068;12.116;2022-11-14T08:59:04;8.01;107.30
584;HTU21D;27024;54.068;12.116;2022-11-14T09:01:31;8.14;106.69
584;HTU21D;27024;54.068;12.116;2022-11-14T09:03:59;8.22;106.43
584;HTU21D;27024;54.068;12.116;2022-11-14T09:06:26;8.17;106.41
584;HTU21D;27024;54.068;12.116;2022-11-14T09:08:53;8.19;106.68
584;HTU21D;27024;54.068;12.116;2022-11-14T09:11:20;8.48;105.39
584;HTU21D;27024;54.068;12.116;2022-11-14T09:13:47;8.52;104.98
584;HTU21D;27024;54.068;12.116;2022-11-14T09:16:14;8.36;105.80
584;HTU21D;27024;54.068;12.116;2022-11-14T09:18:40;8.24;106.44
584;HTU21D;27024;54.068;12.116;2022-11-14T09:21:07;8.05;106.79
584;HTU21D;27024;54.068;12.116;2022-11-14T09:23:35;8.03;106.64
584;HTU21D;27024;54.068;12.116;2022-11-14T09:26:06;8.12;106.92
584;HTU21D;27024;54.068;12.116;2022-11-14T09:28:34;8.33;106.04
584;HTU21D;27024;54.068;12.116;2022-11-14T09:31:08;8.35;106.16
584;HTU21D;27024;54.068;12.116;2022-11-14T09:33:35;8.45;105.39
584;HTU21D;27024;54.068;12.116;2022-11-14T09:36:05;8.34;105.34
584;HTU21D;27024;54.068;12.116;2022-11-14T09:38:33;8.44;105.60
584;HTU21D;27024;54.068;12.116;2022-11-14T09:46:24;8.43;105.54
584;HTU21D;27024;54.068;12.116;2022-11-14T09:48:53;8.46;104.98
584;HTU21D;27024;54.068;12.116;2022-11-14T09:51:29;8.61;104.80
584;HTU21D;27024;54.068;12.116;2022-11-14T09:54:06;8.55;105.02
584;HTU21D;27024;54.068;12.116;2022-11-14T09:56:37;8.50;105.12
584;HTU21D;27024;54.068;12.116;2022-11-14T09:59:09;8.57;105.66
584;HTU21D;27024;54.068;12.116;2022-11-14T10:02:04;8.63;104.56
584;HTU21D;27024;54.068;12.116;2022-11-14T10:07:27;8.76;103.67
584;HTU21D;27024;54.068;12.116;2022-11-14T10:13:02;8.91;102.60
584;HTU21D;27024;54.068;12.116;2022-11-14T10:21:16;8.92;102.63
584;HTU21D;27024;54.068;12.116;2022-11-14T10:32:10;9.16;102.06
584;HTU21D;27024;54.068;12.116;2022-11-14T10:34:59;9.20;101.82
584;HTU21D;27024;54.068;12.116;2022-11-14T10:37:39;9.36;100.52
584;HTU21D;27024;54.068;12.116;2022-11-14T10:40:20;9.56;101.43
584;HTU21D;27024;54.068;12.116;2022-11-14T10:42:53;9.39;99.76
584;HTU21D;27024;54.068;12.116;2022-11-14T10:45:27;9.39;101.23
584;HTU21D;27024;54.068;12.116;2022-11-14T10:47:58;9.50;100.21
584;HTU21D;27024;54.068;12.116;2022-11-14T10:50:46;9.34;100.41
584;HTU21D;27024;54.068;12.116;2022-11-14T10:53:37;9.14;101.41
584;HTU21D;27024;54.068;12.116;2022-11-14T10:56:10;9.18;101.24
584;HTU21D;27024;54.068;12.116;2022-11-14T10:58:37;9.42;100.24
584;HTU21D;27024;54.068;12.116;2022-11-14T11:01:32;10.07;97.05
584;HTU21D;27024;54.068;12.116;2022-11-14T11:04:11;11.13;92.72
584;HTU21D;27024;54.068;12.116;2022-11-14T11:06:39;11.10;91.81
584;HTU21D;27024;54.068;12.116;2022-11-14T11:09:08;11.20;90.95
584;HTU21D;27024;54.068;12.116;2022-11-14T11:11:56;11.09;91.08
584;HTU21D;27024;54.068;12.116;2022-11-14T11:14:24;11.13;91.31
584;HTU21D;27024;54.068;12.116;2022-11-14T11:19:37;11.51;88.92
584;HTU21D;27024;54.068;12.116;2022-11-14T11:22:23;11.94;87.06
584;HTU21D;27024;54.068;12.116;2022-11-14T11:24:50;11.77;88.19
584;HTU21D;27024;54.068;12.116;2022-11-14T11:27:26;11.70;87.79
584;HTU21D;27024;54.068;12.116;2022-11-14T11:30:08;12.17;85.95
584;HTU21D;27024;54.068;12.116;2022-11-14T11:32:41;12.07;86.60
584;HTU21D;27024;54.068;12.116;2022-11-14T11:35:13;11.59;89.15
584;HTU21D;27024;54.068;12.116;2022-11-14T11:37:57;12.10;87.01
584;HTU21D;27024;54.068;12.116;2022-11-14T11:40:27;11.91;87.29
584;HTU21D;27024;54.068;12.116;2022-11-14T11:43:00;12.13;85.29
584;HTU21D;27024;54.068;12.116;2022-11-14T11:45:51;11.54;88.54
584;HTU21D;27024;54.068;12.116;2022-11-14T11:48:21;11.40;88.14
584;HTU21D;27024;54.068;12.116;2022-11-14T11:50:49;11.46;88.73
584;HTU21D;27024;54.068;12.116;2022-11-14T11:55:52;10.96;91.47
584;HTU21D;27024;54.068;12.116;2022-11-14T11:58:24;11.15;92.24
584;HTU21D;27024;54.068;12.116;2022-11-14T12:00:52;10.97;92.88
584;HTU21D;27024;54.068;12.116;2022-11-14T12:03:23;11.17;90.89
584;HTU21D;27024;54.068;12.116;2022-11-14T12:06:11;10.87;92.66
584;HTU21D;27024;54.068;12.116;2022-11-14T12:11:21;11.22;91.73
584;HTU21D;27024;54.068;12.116;2022-11-14T12:13:53;11.12;93.17
584;HTU21D;27024;54.068;12.116;2022-11-14T12:22:20;10.97;91.72
584;HTU21D;27024;54.068;12.116;2022-11-14T12:27:39;10.79;94.04
584;HTU21D;27024;54.068;12.116;2022-11-14T12:30:19;10.71;93.76
584;HTU21D;27024;54.068;12.116;2022-11-14T12:32:54;10.75;93.03
584;HTU21D;27024;54.068;12.116;2022-11-14T12:35:27;10.86;92.89
584;HTU21D;27024;54.068;12.116;2022-11-14T12:37:56;10.93;92.80
584;HTU21D;27024;54.068;12.116;2022-11-14T12:40:31;10.77;94.31
584;HTU21D;27024;54.068;12.116;2022-11-14T12:43:00;10.85;93.48
584;HTU21D;27024;54.068;12.116;2022-11-14T12:50:56;10.70;94.14
584;HTU21D;27024;54.068;12.116;2022-11-14T13:10:23;10.84;93.73
584;HTU21D;27024;54.068;12.116;2022-11-14T13:13:06;10.84;93.64
584;HTU21D;27024;54.068;12.116;2022-11-14T13:15:56;10.84;94.20
584;HTU21D;27024;54.068;12.116;2022-11-14T13:21:38;10.55;95.45
584;HTU21D;27024;54.068;12.116;2022-11-14T13:24:25;10.68;94.77
584;HTU21D;27024;54.068;12.116;2022-11-14T13:26:53;10.62;94.53
584;HTU21D;27024;54.068;12.116;2022-11-14T13:32:09;10.75;94.51
584;HTU21D;27024;54.068;12.116;2022-11-14T13:34:48;10.77;94.33
584;HTU21D;27024;54.068;12.116;2022-11-14T13:40:32;10.74;94.31
584;HTU21D;27024;54.068;12.116;2022-11-14T13:43:10;10.71;94.65
584;HTU21D;27024;54.068;12.116;2022-11-14T13:48:56;10.67;94.95
584;HTU21D;27024;54.068;12.116;2022-11-14T13:51:25;10.56;95.36
584;HTU21D;27024;54.068;12.116;2022-11-14T13:54:10;10.53;95.23
584;HTU21D;27024;54.068;12.116;2022-11-14T14:14:03;9.51;101.76
584;HTU21D;27024;54.068;12.116;2022-11-14T14:16:52;9.44;102.58
584;HTU21D;27024;54.068;12.116;2022-11-14T14:19:47;9.53;102.23
584;HTU21D;27024;54.068;12.116;2022-11-14T14:22:34;9.47;102.51
584;HTU21D;27024;54.068;12.116;2022-11-14T14:25:18;9.36;103.10
584;HTU21D;27024;54.068;12.116;2022-11-14T14:30:33;9.29;103.41
584;HTU21D;27024;54.068;12.116;2022-11-14T14:35:35;8.91;105.28
584;HTU21D;27024;54.068;12.116;2022-11-14T14:38:21;8.82;105.89
584;HTU21D;27024;54.068;12.116;2022-11-14T14:40:48;8.82;105.73
584;HTU21D;27024;54.068;12.116;2022-11-14T14:43:23;8.79;105.95
584;HTU21D;27024;54.068;12.116;2022-11-14T14:45:52;8.65;106.43
584;HTU21D;27024;54.068;12.116;2022-11-14T14:48:26;8.68;106.57
584;HTU21D;27024;54.068;12.116;2022-11-14T14:50:56;8.67;106.53
584;HTU21D;27024;54.068;12.116;2022-11-14T14:53:26;8.60;106.59
584;HTU21D;27024;54.068;12.116;2022-11-14T14:55:56;8.49;107.30
584;HTU21D;27024;54.068;12.116;2022-11-14T14:58:31;8.48;107.40
584;HTU21D;27024;54.068;12.116;2022-11-14T15:01:09;8.44;107.62
584;HTU21D;27024;54.068;12.116;2022-11-14T15:04:07;8.36;107.78
584;HTU21D;27024;54.068;12.116;2022-11-14T15:06:38;8.37;108.22
584;HTU21D;27024;54.068;12.116;2022-11-14T15:11:45;8.18;108.85
584;HTU21D;27024;54.068;12.116;2022-11-14T15:14:16;8.17;108.91
584;HTU21D;27024;54.068;12.116;2022-11-14T15:16:46;8.04;109.42
584;HTU21D;27024;54.068;12.116;2022-11-14T15:19:18;8.05;109.60
584;HTU21D;27024;54.068;12.116;2022-11-14T15:22:00;8.03;109.59
584;HTU21D;27024;54.068;12.116;2022-11-14T15:24:29;7.91;110.12
584;HTU21D;27024;54.068;12.116;2022-11-14T15:26:56;7.87;110.46
584;HTU21D;27024;54.068;12.116;2022-11-14T15:29:25;7.91;110.17
584;HTU21D;27024;54.068;12.116;2022-11-14T15:32:03;7.83;110.65
584;HTU21D;27024;54.068;12.116;2022-11-14T15:34:35;7.84;110.62
584;HTU21D;27024;54.068;12.116;2022-11-14T15:37:21;7.82;111.07
584;HTU21D;27024;54.068;12.116;2022-11-14T15:39:48;7.78;110.74
584;HTU21D;27024;54.068;12.116;2022-11-14T15:44:51;7.64;111.32
584;HTU21D;27024;54.068;12.116;2022-11-14T15:47:27;7.59;111.55
584;HTU21D;27024;54.068;12.116;2022-11-14T15:50:20;7.63;111.31
584;HTU21D;27024;54.068;12.116;2022-11-14T15:52:57;7.57;111.60
584;HTU21D;27024;54.068;12.116;2022-11-14T15:55:24;7.53;111.66
584;HTU21D;27024;54.068;12.116;2022-11-14T15:57:51;7.52;111.78
584;HTU21D;27024;54.068;12.116;2022-11-14T16:00:45;7.48;111.79
584;HTU21D;27024;54.068;12.116;2022-11-14T16:03:17;7.37;112.44
584;HTU21D;27024;54.068;12.116;2022-11-14T16:05:44;7.41;112.26
584;HTU21D;27024;54.068;12.116;2022-11-14T16:08:12;7.23;113.07
584;HTU21D;27024;54.068;12.116;2022-11-14T16:10:38;7.23;113.00
584;HTU21D;27024;54.068;12.116;2022-11-14T16:13:05;7.26;112.92
584;HTU21D;27024;54.068;12.116;2022-11-14T16:15:32;7.24;112.82
584;HTU21D;27024;54.068;12.116;2022-11-14T16:17:59;7.26;112.90
584;HTU21D;27024;54.068;12.116;2022-11-14T16:20:27;7.24;112.93
584;HTU21D;27024;54.068;12.116;2022-11-14T16:22:55;7.16;112.94
584;HTU21D;27024;54.068;12.116;2022-11-14T16:25:23;7.12;113.10
584;HTU21D;27024;54.068;12.116;2022-11-14T16:27:50;7.14;113.19
584;HTU21D;27024;54.068;12.116;2022-11-14T16:30:19;7.09;113.24
584;HTU21D;27024;54.068;12.116;2022-11-14T16:32:47;7.11;113.07
584;HTU21D;27024;54.068;12.116;2022-11-14T16:35:16;7.17;113.16
584;HTU21D;27024;54.068;12.116;2022-11-14T16:37:44;7.07;113.19
584;HTU21D;27024;54.068;12.116;2022-11-14T16:40:19;7.05;113.23
584;HTU21D;27024;54.068;12.116;2022-11-14T16:42:47;7.04;113.24
584;HTU21D;27024;54.068;12.116;2022-11-14T16:45:17;6.98;113.76
584;HTU21D;27024;54.068;12.116;2022-11-14T16:47:47;6.95;113.84
584;HTU21D;27024;54.068;12.116;2022-11-14T16:50:13;6.95;113.90
584;HTU21D;27024;54.068;12.116;2022-11-14T16:52:40;6.96;113.71
584;HTU21D;27024;54.068;12.116;2022-11-14T16:55:08;6.90;113.87
584;HTU21D;27024;54.068;12.116;2022-11-14T16:57:36;6.90;113.90
584;HTU21D;27024;54.068;12.116;2022-11-14T17:00:08;6.97;113.74
584;HTU21D;27024;54.068;12.116;2022-11-14T17:02:36;6.93;113.45
584;HTU21D;27024;54.068;12.116;2022-11-14T17:05:03;6.93;113.48
584;HTU21D;27024;54.068;12.116;2022-11-14T17:07:30;6.89;113.63
584;HTU21D;27024;54.068;12.116;2022-11-14T17:09:59;6.82;113.94
584;HTU21D;27024;54.068;12.116;2022-11-14T17:12:26;6.81;113.99
584;HTU21D;27024;54.068;12.116;2022-11-14T17:14:53;6.81;114.19
584;HTU21D;27024;54.068;12.116;2022-11-14T17:17:20;6.79;114.21
584;HTU21D;27024;54.068;12.116;2022-11-14T17:19:47;6.78;114.16
584;HTU21D;27024;54.068;12.116;2022-11-14T17:22:15;6.79;114.04
584;HTU21D;27024;54.068;12.116;2022-11-14T17:24:43;6.76;114.19
584;HTU21D;27024;54.068;12.116;2022-11-14T17:27:11;6.70;114.62
584;HTU21D;27024;54.068;12.116;2022-11-14T17:29:38;6.72;114.50
584;HTU21D;27024;54.068;12.116;2022-11-14T17:32:05;6.69;114.56
584;HTU21D;27024;54.068;12.116;2022-11-14T17:34:32;6.67;114.55
584;HTU21D;27024;54.068;12.116;2022-11-14T17:36:59;6.66;114.76